Tropical I — CRLU8 — position and weather

sailwx.info

Track history (hours):
 
Tides and Currents Weather Stations Pressure Air Temp Water Temp Dewpoint Dewpoint Depression Visibility Wind Speed Wind Dir Waves Ship Positions

Tropical I

Last reported at 2016-Jul-03 13:32 UTC. Time now 2016-Jul-26 21:46 UTC.
Position N 38°41' W 009°11'.
Warning: this ship's position is 23 days out of date.

Length 11 m.

Type: Pleasure craft. MMSI: 263818940.

Date/timePositionNaut miles runAvg speedWind from/ knotsBaromVisibWave heightAir tempDewpointWater temp
2016-Jul-03 13:32N 38°41' W 009°11'2 2.0
2016-Jul-03 12:33N 38°41' W 009°14'1 0.7
2016-Jul-03 11:33N 38°42' W 009°14'2 1.6
2016-Jul-03 10:29N 38°42' W 009°12'  
2016-Jun-26 14:30N 38°42' W 009°12'3 2.9
2016-Jun-26 13:31N 38°41' W 009°16'1 1.1
2016-Jun-26 12:32N 38°41' W 009°15'2 2.3
2016-Jun-26 11:33N 38°42' W 009°12'0 0.0
2016-Jun-24 19:23N 38°42' W 009°12'0 0.3
2016-Jun-24 18:31N 38°41' W 009°12'0 0.2
2016-Jun-24 17:30N 38°41' W 009°12'  
Track history (hours):
 
Tides and Currents Weather Stations Pressure Air Temp Water Temp Dewpoint Dewpoint Depression Visibility Wind Speed Wind Dir Waves Ship Positions

Tropical I

Last reported at 2016-Jul-03 13:32 UTC. Time now 2016-Jul-26 21:46 UTC.
Position N 38°41' W 009°11'.
Warning: this ship's position is 23 days out of date.

Length 11 m.

Type: Pleasure craft. MMSI: 263818940.

Date/timePositionNaut miles runAvg speedWind from/ knotsBaromVisibWave heightAir tempDewpointWater temp
2016-Jul-03 13:32N 38°41' W 009°11'2 2.0
2016-Jul-03 12:33N 38°41' W 009°14'1 0.7
2016-Jul-03 11:33N 38°42' W 009°14'2 1.6
2016-Jul-03 10:29N 38°42' W 009°12'  
2016-Jun-26 14:30N 38°42' W 009°12'3 2.9
2016-Jun-26 13:31N 38°41' W 009°16'1 1.1
2016-Jun-26 12:32N 38°41' W 009°15'2 2.3
2016-Jun-26 11:33N 38°42' W 009°12'0 0.0
2016-Jun-24 19:23N 38°42' W 009°12'0 0.3
2016-Jun-24 18:31N 38°41' W 009°12'0 0.2
2016-Jun-24 17:30N 38°41' W 009°12'  

Dump ship's entire track history